sensor_id;sensor_type;location;lat;lon;timestamp;P1;durP1;ratioP1;P2;durP2;ratioP2
20619;SDS011;10469;42.720;23.252;2024-03-08T00:02:03;6.03;;;3.22;;
20619;SDS011;10469;42.720;23.252;2024-03-08T00:04:28;3.30;;;3.00;;
20619;SDS011;10469;42.720;23.252;2024-03-08T00:06:54;3.28;;;2.97;;
20619;SDS011;10469;42.720;23.252;2024-03-08T00:09:20;3.08;;;2.70;;
20619;SDS011;10469;42.720;23.252;2024-03-08T00:11:46;3.47;;;2.83;;
20619;SDS011;10469;42.720;23.252;2024-03-08T00:14:12;2.80;;;2.47;;
20619;SDS011;10469;42.720;23.252;2024-03-08T00:16:37;2.47;;;2.28;;
20619;SDS011;10469;42.720;23.252;2024-03-08T00:19:03;2.40;;;2.20;;
20619;SDS011;10469;42.720;23.252;2024-03-08T00:21:29;2.50;;;2.30;;
20619;SDS011;10469;42.720;23.252;2024-03-08T00:23:54;2.53;;;2.33;;
20619;SDS011;10469;42.720;23.252;2024-03-08T00:26:20;2.55;;;2.35;;
20619;SDS011;10469;42.720;23.252;2024-03-08T00:28:47;2.83;;;2.63;;
20619;SDS011;10469;42.720;23.252;2024-03-08T00:31:14;2.35;;;2.13;;
20619;SDS011;10469;42.720;23.252;2024-03-08T00:33:42;4.72;;;2.05;;
20619;SDS011;10469;42.720;23.252;2024-03-08T00:36:07;2.17;;;2.00;;
20619;SDS011;10469;42.720;23.252;2024-03-08T00:38:33;3.83;;;2.00;;
20619;SDS011;10469;42.720;23.252;2024-03-08T00:40:59;2.45;;;2.17;;
20619;SDS011;10469;42.720;23.252;2024-03-08T00:43:25;2.95;;;2.28;;
20619;SDS011;10469;42.720;23.252;2024-03-08T00:45:51;2.63;;;2.42;;
20619;SDS011;10469;42.720;23.252;2024-03-08T00:48:16;2.40;;;2.20;;
20619;SDS011;10469;42.720;23.252;2024-03-08T00:50:42;3.47;;;2.50;;
20619;SDS011;10469;42.720;23.252;2024-03-08T00:53:10;2.88;;;2.50;;
20619;SDS011;10469;42.720;23.252;2024-03-08T00:55:36;3.25;;;2.95;;
20619;SDS011;10469;42.720;23.252;2024-03-08T00:58:03;2.70;;;2.50;;
20619;SDS011;10469;42.720;23.252;2024-03-08T01:00:29;3.10;;;2.58;;
20619;SDS011;10469;42.720;23.252;2024-03-08T01:02:54;3.22;;;2.83;;
20619;SDS011;10469;42.720;23.252;2024-03-08T01:05:20;3.35;;;3.05;;
20619;SDS011;10469;42.720;23.252;2024-03-08T01:07:46;2.70;;;2.50;;
20619;SDS011;10469;42.720;23.252;2024-03-08T01:10:12;3.08;;;2.63;;
20619;SDS011;10469;42.720;23.252;2024-03-08T01:12:38;2.53;;;2.33;;
20619;SDS011;10469;42.720;23.252;2024-03-08T01:15:04;2.95;;;2.70;;
20619;SDS011;10469;42.720;23.252;2024-03-08T01:17:30;7.88;;;2.50;;
20619;SDS011;10469;42.720;23.252;2024-03-08T01:19:56;3.22;;;2.80;;
20619;SDS011;10469;42.720;23.252;2024-03-08T01:22:21;2.70;;;2.50;;
20619;SDS011;10469;42.720;23.252;2024-03-08T01:24:48;2.47;;;2.28;;
20619;SDS011;10469;42.720;23.252;2024-03-08T01:27:13;2.70;;;2.50;;
20619;SDS011;10469;42.720;23.252;2024-03-08T01:29:39;2.83;;;2.35;;
20619;SDS011;10469;42.720;23.252;2024-03-08T01:32:05;2.47;;;2.28;;
20619;SDS011;10469;42.720;23.252;2024-03-08T01:34:31;2.80;;;2.58;;
20619;SDS011;10469;42.720;23.252;2024-03-08T01:36:58;3.03;;;2.55;;
20619;SDS011;10469;42.720;23.252;2024-03-08T01:39:24;2.58;;;2.30;;
20619;SDS011;10469;42.720;23.252;2024-03-08T01:41:50;2.72;;;2.53;;
20619;SDS011;10469;42.720;23.252;2024-03-08T01:44:15;2.78;;;2.35;;
20619;SDS011;10469;42.720;23.252;2024-03-08T01:46:45;2.80;;;2.50;;
20619;SDS011;10469;42.720;23.252;2024-03-08T01:49:12;2.85;;;2.35;;
20619;SDS011;10469;42.720;23.252;2024-03-08T01:51:39;2.60;;;2.40;;
20619;SDS011;10469;42.720;23.252;2024-03-08T01:54:06;2.22;;;2.00;;
20619;SDS011;10469;42.720;23.252;2024-03-08T01:56:35;1.88;;;1.70;;
20619;SDS011;10469;42.720;23.252;2024-03-08T01:59:02;2.30;;;2.10;;
20619;SDS011;10469;42.720;23.252;2024-03-08T02:01:28;2.50;;;2.30;;
20619;SDS011;10469;42.720;23.252;2024-03-08T02:03:54;2.33;;;2.13;;
20619;SDS011;10469;42.720;23.252;2024-03-08T02:06:20;2.08;;;1.92;;
20619;SDS011;10469;42.720;23.252;2024-03-08T02:08:45;2.30;;;2.10;;
20619;SDS011;10469;42.720;23.252;2024-03-08T02:11:12;3.08;;;2.75;;
20619;SDS011;10469;42.720;23.252;2024-03-08T02:13:38;2.15;;;1.80;;
20619;SDS011;10469;42.720;23.252;2024-03-08T02:16:04;1.80;;;1.70;;
20619;SDS011;10469;42.720;23.252;2024-03-08T02:18:33;2.25;;;2.05;;
20619;SDS011;10469;42.720;23.252;2024-03-08T02:20:59;2.65;;;2.15;;
20619;SDS011;10469;42.720;23.252;2024-03-08T02:23:26;2.88;;;1.92;;
20619;SDS011;10469;42.720;23.252;2024-03-08T02:25:52;2.58;;;2.20;;
20619;SDS011;10469;42.720;23.252;2024-03-08T02:28:18;2.22;;;2.03;;
20619;SDS011;10469;42.720;23.252;2024-03-08T02:30:45;3.53;;;2.00;;
20619;SDS011;10469;42.720;23.252;2024-03-08T02:33:14;3.00;;;2.10;;
20619;SDS011;10469;42.720;23.252;2024-03-08T02:35:43;3.05;;;2.35;;
20619;SDS011;10469;42.720;23.252;2024-03-08T02:38:13;3.58;;;1.90;;
20619;SDS011;10469;42.720;23.252;2024-03-08T02:40:41;2.25;;;1.85;;
20619;SDS011;10469;42.720;23.252;2024-03-08T02:43:08;2.10;;;1.90;;
20619;SDS011;10469;42.720;23.252;2024-03-08T02:45:33;2.60;;;2.40;;
20619;SDS011;10469;42.720;23.252;2024-03-08T02:48:00;2.72;;;2.22;;
20619;SDS011;10469;42.720;23.252;2024-03-08T02:50:25;2.90;;;2.40;;
20619;SDS011;10469;42.720;23.252;2024-03-08T02:52:51;2.78;;;2.22;;
20619;SDS011;10469;42.720;23.252;2024-03-08T02:55:16;1.95;;;1.85;;
20619;SDS011;10469;42.720;23.252;2024-03-08T02:57:42;4.53;;;2.10;;
20619;SDS011;10469;42.720;23.252;2024-03-08T03:00:14;3.33;;;2.38;;
20619;SDS011;10469;42.720;23.252;2024-03-08T03:02:40;3.83;;;2.65;;
20619;SDS011;10469;42.720;23.252;2024-03-08T03:05:07;2.90;;;2.58;;
20619;SDS011;10469;42.720;23.252;2024-03-08T03:07:34;2.85;;;2.20;;
20619;SDS011;10469;42.720;23.252;2024-03-08T03:10:00;2.45;;;2.20;;
20619;SDS011;10469;42.720;23.252;2024-03-08T03:12:27;2.55;;;2.35;;
20619;SDS011;10469;42.720;23.252;2024-03-08T03:14:53;4.10;;;2.33;;
20619;SDS011;10469;42.720;23.252;2024-03-08T03:17:19;3.38;;;2.60;;
20619;SDS011;10469;42.720;23.252;2024-03-08T03:19:45;3.55;;;2.75;;
20619;SDS011;10469;42.720;23.252;2024-03-08T03:22:11;6.95;;;2.90;;
20619;SDS011;10469;42.720;23.252;2024-03-08T03:24:37;3.92;;;2.80;;
20619;SDS011;10469;42.720;23.252;2024-03-08T03:27:07;2.50;;;2.30;;
20619;SDS011;10469;42.720;23.252;2024-03-08T03:29:36;2.47;;;2.28;;
20619;SDS011;10469;42.720;23.252;2024-03-08T03:32:02;2.53;;;2.00;;
20619;SDS011;10469;42.720;23.252;2024-03-08T03:34:29;2.78;;;2.15;;
20619;SDS011;10469;42.720;23.252;2024-03-08T03:36:54;2.60;;;2.10;;
20619;SDS011;10469;42.720;23.252;2024-03-08T03:39:21;2.00;;;1.80;;
20619;SDS011;10469;42.720;23.252;2024-03-08T03:41:48;2.95;;;1.63;;
20619;SDS011;10469;42.720;23.252;2024-03-08T03:44:17;1.80;;;1.70;;
20619;SDS011;10469;42.720;23.252;2024-03-08T03:46:43;2.13;;;1.65;;
20619;SDS011;10469;42.720;23.252;2024-03-08T03:49:12;2.20;;;1.73;;
20619;SDS011;10469;42.720;23.252;2024-03-08T03:51:38;1.92;;;1.83;;
20619;SDS011;10469;42.720;23.252;2024-03-08T03:54:04;1.90;;;1.70;;
20619;SDS011;10469;42.720;23.252;2024-03-08T03:56:29;2.10;;;1.90;;
20619;SDS011;10469;42.720;23.252;2024-03-08T03:58:58;2.88;;;2.40;;
20619;SDS011;10469;42.720;23.252;2024-03-08T04:01:23;2.30;;;2.10;;
20619;SDS011;10469;42.720;23.252;2024-03-08T04:03:49;2.80;;;2.20;;
20619;SDS011;10469;42.720;23.252;2024-03-08T04:06:14;5.43;;;1.80;;
20619;SDS011;10469;42.720;23.252;2024-03-08T04:08:40;2.05;;;1.90;;
20619;SDS011;10469;42.720;23.252;2024-03-08T04:11:06;1.90;;;1.80;;
20619;SDS011;10469;42.720;23.252;2024-03-08T04:13:33;3.78;;;1.88;;
20619;SDS011;10469;42.720;23.252;2024-03-08T04:15:59;3.20;;;1.85;;
20619;SDS011;10469;42.720;23.252;2024-03-08T04:18:25;2.20;;;2.00;;
20619;SDS011;10469;42.720;23.252;2024-03-08T04:20:51;2.22;;;1.80;;
20619;SDS011;10469;42.720;23.252;2024-03-08T04:23:16;2.72;;;2.05;;
20619;SDS011;10469;42.720;23.252;2024-03-08T04:25:43;2.47;;;2.28;;
20619;SDS011;10469;42.720;23.252;2024-03-08T04:28:08;5.13;;;2.10;;
20619;SDS011;10469;42.720;23.252;2024-03-08T04:30:38;2.28;;;2.08;;
20619;SDS011;10469;42.720;23.252;2024-03-08T04:33:04;3.03;;;2.22;;
20619;SDS011;10469;42.720;23.252;2024-03-08T04:35:32;2.08;;;1.90;;
20619;SDS011;10469;42.720;23.252;2024-03-08T04:37:58;2.33;;;1.75;;
20619;SDS011;10469;42.720;23.252;2024-03-08T04:40:23;3.08;;;1.70;;
20619;SDS011;10469;42.720;23.252;2024-03-08T04:42:49;5.80;;;2.50;;
20619;SDS011;10469;42.720;23.252;2024-03-08T04:45:16;3.75;;;2.40;;
20619;SDS011;10469;42.720;23.252;2024-03-08T04:47:42;2.67;;;2.47;;
20619;SDS011;10469;42.720;23.252;2024-03-08T04:50:08;2.17;;;1.98;;
20619;SDS011;10469;42.720;23.252;2024-03-08T04:52:34;2.92;;;2.67;;
20619;SDS011;10469;42.720;23.252;2024-03-08T04:55:00;2.80;;;2.60;;
20619;SDS011;10469;42.720;23.252;2024-03-08T04:57:29;3.50;;;2.40;;
20619;SDS011;10469;42.720;23.252;2024-03-08T05:05:45;4.25;;;3.00;;
20619;SDS011;10469;42.720;23.252;2024-03-08T05:08:10;3.03;;;2.72;;
20619;SDS011;10469;42.720;23.252;2024-03-08T05:10:36;3.83;;;2.97;;
20619;SDS011;10469;42.720;23.252;2024-03-08T05:13:01;6.00;;;3.42;;
20619;SDS011;10469;42.720;23.252;2024-03-08T05:15:27;4.03;;;3.38;;
20619;SDS011;10469;42.720;23.252;2024-03-08T05:17:52;5.60;;;3.58;;
20619;SDS011;10469;42.720;23.252;2024-03-08T05:20:18;5.95;;;4.20;;
20619;SDS011;10469;42.720;23.252;2024-03-08T05:22:44;4.90;;;3.97;;
20619;SDS011;10469;42.720;23.252;2024-03-08T05:25:10;5.70;;;4.50;;
20619;SDS011;10469;42.720;23.252;2024-03-08T05:27:35;7.35;;;5.05;;
20619;SDS011;10469;42.720;23.252;2024-03-08T05:30:02;5.80;;;4.78;;
20619;SDS011;10469;42.720;23.252;2024-03-08T05:32:29;6.70;;;4.70;;
20619;SDS011;10469;42.720;23.252;2024-03-08T05:34:55;6.88;;;4.55;;
20619;SDS011;10469;42.720;23.252;2024-03-08T05:37:20;6.05;;;4.78;;
20619;SDS011;10469;42.720;23.252;2024-03-08T05:39:47;5.25;;;4.70;;
20619;SDS011;10469;42.720;23.252;2024-03-08T05:42:12;8.90;;;6.68;;
20619;SDS011;10469;42.720;23.252;2024-03-08T05:44:38;8.15;;;5.85;;
20619;SDS011;10469;42.720;23.252;2024-03-08T05:47:05;6.10;;;5.10;;
20619;SDS011;10469;42.720;23.252;2024-03-08T05:49:32;8.50;;;5.35;;
20619;SDS011;10469;42.720;23.252;2024-03-08T05:51:59;8.35;;;5.20;;
20619;SDS011;10469;42.720;23.252;2024-03-08T05:54:25;7.60;;;5.75;;
20619;SDS011;10469;42.720;23.252;2024-03-08T05:56:52;9.77;;;5.72;;
20619;SDS011;10469;42.720;23.252;2024-03-08T05:59:18;7.20;;;5.63;;
20619;SDS011;10469;42.720;23.252;2024-03-08T06:01:44;8.48;;;6.05;;
20619;SDS011;10469;42.720;23.252;2024-03-08T06:04:11;9.80;;;7.22;;
20619;SDS011;10469;42.720;23.252;2024-03-08T06:06:36;9.95;;;7.38;;
20619;SDS011;10469;42.720;23.252;2024-03-08T06:09:02;11.40;;;7.47;;
20619;SDS011;10469;42.720;23.252;2024-03-08T06:11:34;12.32;;;7.28;;
20619;SDS011;10469;42.720;23.252;2024-03-08T06:14:00;10.15;;;7.05;;
20619;SDS011;10469;42.720;23.252;2024-03-08T06:16:26;7.90;;;6.32;;
20619;SDS011;10469;42.720;23.252;2024-03-08T06:18:56;8.27;;;6.63;;
20619;SDS011;10469;42.720;23.252;2024-03-08T06:21:22;9.98;;;7.07;;
20619;SDS011;10469;42.720;23.252;2024-03-08T06:23:51;9.45;;;7.38;;
20619;SDS011;10469;42.720;23.252;2024-03-08T06:26:19;10.80;;;7.53;;
20619;SDS011;10469;42.720;23.252;2024-03-08T06:28:47;9.68;;;6.97;;
20619;SDS011;10469;42.720;23.252;2024-03-08T06:31:13;10.65;;;8.07;;
20619;SDS011;10469;42.720;23.252;2024-03-08T06:33:39;8.55;;;5.90;;
20619;SDS011;10469;42.720;23.252;2024-03-08T06:36:05;11.63;;;7.57;;
20619;SDS011;10469;42.720;23.252;2024-03-08T06:38:31;17.90;;;11.02;;
20619;SDS011;10469;42.720;23.252;2024-03-08T06:40:56;17.02;;;9.05;;
20619;SDS011;10469;42.720;23.252;2024-03-08T06:43:22;9.55;;;7.13;;
20619;SDS011;10469;42.720;23.252;2024-03-08T06:45:47;10.60;;;7.63;;
20619;SDS011;10469;42.720;23.252;2024-03-08T06:48:16;12.77;;;8.38;;
20619;SDS011;10469;42.720;23.252;2024-03-08T06:50:43;14.57;;;10.48;;
20619;SDS011;10469;42.720;23.252;2024-03-08T06:53:12;14.23;;;9.93;;
20619;SDS011;10469;42.720;23.252;2024-03-08T06:55:38;15.43;;;10.13;;
20619;SDS011;10469;42.720;23.252;2024-03-08T06:58:04;15.48;;;10.32;;
20619;SDS011;10469;42.720;23.252;2024-03-08T07:00:30;11.68;;;8.82;;
20619;SDS011;10469;42.720;23.252;2024-03-08T07:02:56;16.92;;;10.00;;
20619;SDS011;10469;42.720;23.252;2024-03-08T07:05:26;15.00;;;10.27;;
20619;SDS011;10469;42.720;23.252;2024-03-08T07:07:52;16.08;;;11.23;;
20619;SDS011;10469;42.720;23.252;2024-03-08T07:10:18;17.27;;;11.73;;
20619;SDS011;10469;42.720;23.252;2024-03-08T07:12:44;14.15;;;11.52;;
20619;SDS011;10469;42.720;23.252;2024-03-08T07:15:12;16.83;;;10.23;;
20619;SDS011;10469;42.720;23.252;2024-03-08T07:17:41;17.30;;;11.27;;
20619;SDS011;10469;42.720;23.252;2024-03-08T07:20:09;14.57;;;10.10;;
20619;SDS011;10469;42.720;23.252;2024-03-08T07:22:37;13.50;;;10.35;;
20619;SDS011;10469;42.720;23.252;2024-03-08T07:25:06;14.00;;;10.07;;
20619;SDS011;10469;42.720;23.252;2024-03-08T07:27:35;16.25;;;10.40;;
20619;SDS011;10469;42.720;23.252;2024-03-08T07:30:01;10.38;;;8.13;;
20619;SDS011;10469;42.720;23.252;2024-03-08T07:32:28;13.48;;;7.65;;
20619;SDS011;10469;42.720;23.252;2024-03-08T07:34:55;14.45;;;7.63;;
20619;SDS011;10469;42.720;23.252;2024-03-08T07:37:21;9.80;;;7.32;;
20619;SDS011;10469;42.720;23.252;2024-03-08T07:39:47;10.38;;;7.78;;
20619;SDS011;10469;42.720;23.252;2024-03-08T07:42:12;11.05;;;7.60;;
20619;SDS011;10469;42.720;23.252;2024-03-08T07:44:38;10.95;;;7.15;;
20619;SDS011;10469;42.720;23.252;2024-03-08T07:47:04;15.57;;;7.95;;
20619;SDS011;10469;42.720;23.252;2024-03-08T07:49:30;10.00;;;6.88;;
20619;SDS011;10469;42.720;23.252;2024-03-08T07:51:58;11.85;;;7.13;;
20619;SDS011;10469;42.720;23.252;2024-03-08T07:54:24;10.43;;;6.90;;
20619;SDS011;10469;42.720;23.252;2024-03-08T07:56:50;12.85;;;6.82;;
20619;SDS011;10469;42.720;23.252;2024-03-08T07:59:16;7.65;;;5.38;;
20619;SDS011;10469;42.720;23.252;2024-03-08T08:01:41;8.25;;;5.68;;
20619;SDS011;10469;42.720;23.252;2024-03-08T08:04:09;11.43;;;6.25;;
20619;SDS011;10469;42.720;23.252;2024-03-08T08:06:37;8.57;;;5.05;;
20619;SDS011;10469;42.720;23.252;2024-03-08T08:09:04;5.60;;;4.20;;
20619;SDS011;10469;42.720;23.252;2024-03-08T08:11:30;5.00;;;4.30;;
20619;SDS011;10469;42.720;23.252;2024-03-08T08:13:57;6.22;;;4.80;;
20619;SDS011;10469;42.720;23.252;2024-03-08T08:16:24;8.25;;;4.78;;
20619;SDS011;10469;42.720;23.252;2024-03-08T08:18:50;6.63;;;4.90;;
20619;SDS011;10469;42.720;23.252;2024-03-08T08:21:17;7.63;;;4.43;;
20619;SDS011;10469;42.720;23.252;2024-03-08T08:23:43;9.82;;;4.57;;
20619;SDS011;10469;42.720;23.252;2024-03-08T08:26:09;6.97;;;4.78;;
20619;SDS011;10469;42.720;23.252;2024-03-08T08:28:36;10.02;;;4.97;;
20619;SDS011;10469;42.720;23.252;2024-03-08T08:31:02;8.65;;;4.68;;
20619;SDS011;10469;42.720;23.252;2024-03-08T08:33:29;5.63;;;4.68;;
20619;SDS011;10469;42.720;23.252;2024-03-08T08:35:54;12.25;;;6.18;;
20619;SDS011;10469;42.720;23.252;2024-03-08T08:38:20;5.40;;;4.28;;
20619;SDS011;10469;42.720;23.252;2024-03-08T08:40:46;7.05;;;4.25;;
20619;SDS011;10469;42.720;23.252;2024-03-08T08:43:12;8.00;;;4.45;;
20619;SDS011;10469;42.720;23.252;2024-03-08T08:45:39;9.32;;;4.43;;
20619;SDS011;10469;42.720;23.252;2024-03-08T08:48:05;12.45;;;6.35;;
20619;SDS011;10469;42.720;23.252;2024-03-08T08:50:31;9.40;;;4.60;;
20619;SDS011;10469;42.720;23.252;2024-03-08T08:52:57;5.18;;;4.10;;
20619;SDS011;10469;42.720;23.252;2024-03-08T08:55:23;3.40;;;3.10;;
20619;SDS011;10469;42.720;23.252;2024-03-08T08:57:52;4.05;;;3.40;;
20619;SDS011;10469;42.720;23.252;2024-03-08T09:00:19;4.00;;;3.38;;
20619;SDS011;10469;42.720;23.252;2024-03-08T09:02:45;6.22;;;3.70;;
20619;SDS011;10469;42.720;23.252;2024-03-08T09:05:12;15.18;;;4.38;;
20619;SDS011;10469;42.720;23.252;2024-03-08T09:07:39;7.22;;;3.83;;
20619;SDS011;10469;42.720;23.252;2024-03-08T09:10:05;6.07;;;3.65;;
20619;SDS011;10469;42.720;23.252;2024-03-08T09:12:31;13.32;;;4.20;;
20619;SDS011;10469;42.720;23.252;2024-03-08T09:14:57;18.25;;;4.15;;
20619;SDS011;10469;42.720;23.252;2024-03-08T09:17:24;9.98;;;3.63;;
20619;SDS011;10469;42.720;23.252;2024-03-08T09:19:50;7.80;;;3.13;;
20619;SDS011;10469;42.720;23.252;2024-03-08T09:22:16;5.75;;;3.65;;
20619;SDS011;10469;42.720;23.252;2024-03-08T09:24:43;22.38;;;5.32;;
20619;SDS011;10469;42.720;23.252;2024-03-08T09:27:09;24.60;;;7.07;;
20619;SDS011;10469;42.720;23.252;2024-03-08T09:29:37;4.35;;;3.67;;
20619;SDS011;10469;42.720;23.252;2024-03-08T09:32:02;7.90;;;3.35;;
20619;SDS011;10469;42.720;23.252;2024-03-08T09:34:29;14.65;;;3.88;;
20619;SDS011;10469;42.720;23.252;2024-03-08T09:36:55;5.72;;;3.40;;
20619;SDS011;10469;42.720;23.252;2024-03-08T09:39:20;4.32;;;3.40;;
20619;SDS011;10469;42.720;23.252;2024-03-08T09:41:46;5.97;;;3.13;;
20619;SDS011;10469;42.720;23.252;2024-03-08T09:44:15;3.10;;;2.55;;
20619;SDS011;10469;42.720;23.252;2024-03-08T09:46:41;3.45;;;2.63;;
20619;SDS011;10469;42.720;23.252;2024-03-08T09:49:07;5.63;;;2.83;;
20619;SDS011;10469;42.720;23.252;2024-03-08T09:51:33;3.33;;;3.03;;
20619;SDS011;10469;42.720;23.252;2024-03-08T09:54:03;4.43;;;2.90;;
20619;SDS011;10469;42.720;23.252;2024-03-08T09:56:31;6.30;;;2.97;;
20619;SDS011;10469;42.720;23.252;2024-03-08T09:58:59;11.00;;;3.22;;
20619;SDS011;10469;42.720;23.252;2024-03-08T10:01:33;4.70;;;3.20;;
20619;SDS011;10469;42.720;23.252;2024-03-08T10:03:59;16.25;;;3.42;;
20619;SDS011;10469;42.720;23.252;2024-03-08T10:06:24;5.50;;;2.97;;
20619;SDS011;10469;42.720;23.252;2024-03-08T10:08:50;6.10;;;3.15;;
20619;SDS011;10469;42.720;23.252;2024-03-08T10:11:19;43.55;;;5.03;;
20619;SDS011;10469;42.720;23.252;2024-03-08T10:13:45;11.25;;;3.15;;
20619;SDS011;10469;42.720;23.252;2024-03-08T10:16:12;3.15;;;2.65;;
20619;SDS011;10469;42.720;23.252;2024-03-08T10:18:38;5.22;;;2.80;;
20619;SDS011;10469;42.720;23.252;2024-03-08T10:23:31;5.93;;;2.72;;
20619;SDS011;10469;42.720;23.252;2024-03-08T10:26:04;3.72;;;2.72;;
20619;SDS011;10469;42.720;23.252;2024-03-08T10:28:47;7.63;;;3.20;;
20619;SDS011;10469;42.720;23.252;2024-03-08T10:33:40;2.75;;;2.55;;
20619;SDS011;10469;42.720;23.252;2024-03-08T10:36:09;8.07;;;2.88;;
20619;SDS011;10469;42.720;23.252;2024-03-08T10:38:39;6.38;;;2.35;;
20619;SDS011;10469;42.720;23.252;2024-03-08T10:41:07;6.97;;;2.80;;
20619;SDS011;10469;42.720;23.252;2024-03-08T10:49:55;7.95;;;2.28;;
20619;SDS011;10469;42.720;23.252;2024-03-08T10:52:22;7.47;;;3.05;;
20619;SDS011;10469;42.720;23.252;2024-03-08T10:54:49;11.98;;;3.10;;
20619;SDS011;10469;42.720;23.252;2024-03-08T10:57:18;5.18;;;2.45;;
20619;SDS011;10469;42.720;23.252;2024-03-08T10:59:48;4.85;;;2.35;;
20619;SDS011;10469;42.720;23.252;2024-03-08T11:02:16;5.10;;;2.40;;
20619;SDS011;10469;42.720;23.252;2024-03-08T11:10:52;2.97;;;2.65;;
20619;SDS011;10469;42.720;23.252;2024-03-08T11:13:36;4.35;;;1.92;;
20619;SDS011;10469;42.720;23.252;2024-03-08T11:16:12;2.17;;;1.98;;
20619;SDS011;10469;42.720;23.252;2024-03-08T11:18:58;2.95;;;1.80;;
20619;SDS011;10469;42.720;23.252;2024-03-08T11:21:31;3.75;;;2.10;;
20619;SDS011;10469;42.720;23.252;2024-03-08T11:24:11;5.00;;;2.38;;
20619;SDS011;10469;42.720;23.252;2024-03-08T11:26:39;2.33;;;2.13;;
20619;SDS011;10469;42.720;23.252;2024-03-08T11:34:43;6.10;;;1.95;;
20619;SDS011;10469;42.720;23.252;2024-03-08T11:37:17;2.90;;;1.65;;
20619;SDS011;10469;42.720;23.252;2024-03-08T11:39:52;2.55;;;1.50;;
20619;SDS011;10469;42.720;23.252;2024-03-08T11:42:24;1.58;;;1.48;;
20619;SDS011;10469;42.720;23.252;2024-03-08T11:44:53;4.05;;;1.65;;
20619;SDS011;10469;42.720;23.252;2024-03-08T11:47:19;1.70;;;1.50;;
20619;SDS011;10469;42.720;23.252;2024-03-08T11:49:45;1.70;;;1.60;;
20619;SDS011;10469;42.720;23.252;2024-03-08T11:52:13;2.00;;;1.90;;
20619;SDS011;10469;42.720;23.252;2024-03-08T11:54:40;2.85;;;1.90;;
20619;SDS011;10469;42.720;23.252;2024-03-08T11:57:10;1.73;;;1.63;;
20619;SDS011;10469;42.720;23.252;2024-03-08T11:59:36;5.47;;;2.30;;
20619;SDS011;10469;42.720;23.252;2024-03-08T12:02:03;5.85;;;2.17;;
20619;SDS011;10469;42.720;23.252;2024-03-08T12:04:31;2.83;;;2.53;;
20619;SDS011;10469;42.720;23.252;2024-03-08T12:07:00;2.95;;;2.25;;
20619;SDS011;10469;42.720;23.252;2024-03-08T12:09:27;2.58;;;1.85;;
20619;SDS011;10469;42.720;23.252;2024-03-08T12:11:53;1.83;;;1.73;;
20619;SDS011;10469;42.720;23.252;2024-03-08T12:14:18;1.63;;;1.52;;
20619;SDS011;10469;42.720;23.252;2024-03-08T12:16:45;2.13;;;1.92;;
20619;SDS011;10469;42.720;23.252;2024-03-08T12:19:13;10.23;;;2.70;;
20619;SDS011;10469;42.720;23.252;2024-03-08T12:21:39;1.95;;;1.80;;
20619;SDS011;10469;42.720;23.252;2024-03-08T12:24:14;2.85;;;1.65;;
20619;SDS011;10469;42.720;23.252;2024-03-08T12:26:44;2.20;;;2.00;;
20619;SDS011;10469;42.720;23.252;2024-03-08T12:29:14;5.72;;;2.40;;
20619;SDS011;10469;42.720;23.252;2024-03-08T12:31:46;3.78;;;2.30;;
20619;SDS011;10469;42.720;23.252;2024-03-08T12:34:12;5.03;;;1.90;;
20619;SDS011;10469;42.720;23.252;2024-03-08T12:36:44;7.10;;;2.00;;
20619;SDS011;10469;42.720;23.252;2024-03-08T12:39:12;3.33;;;2.25;;
20619;SDS011;10469;42.720;23.252;2024-03-08T12:41:41;2.53;;;2.17;;
20619;SDS011;10469;42.720;23.252;2024-03-08T12:44:07;7.40;;;2.15;;
20619;SDS011;10469;42.720;23.252;2024-03-08T12:46:35;2.75;;;1.98;;
20619;SDS011;10469;42.720;23.252;2024-03-08T12:49:01;2.70;;;2.22;;
20619;SDS011;10469;42.720;23.252;2024-03-08T12:51:28;3.10;;;2.15;;
20619;SDS011;10469;42.720;23.252;2024-03-08T12:53:54;4.75;;;2.15;;
20619;SDS011;10469;42.720;23.252;2024-03-08T12:56:30;3.78;;;2.33;;
20619;SDS011;10469;42.720;23.252;2024-03-08T12:58:58;2.72;;;2.20;;
20619;SDS011;10469;42.720;23.252;2024-03-08T13:01:25;2.00;;;1.90;;
20619;SDS011;10469;42.720;23.252;2024-03-08T13:03:52;2.85;;;1.92;;
20619;SDS011;10469;42.720;23.252;2024-03-08T13:06:18;2.38;;;2.17;;
20619;SDS011;10469;42.720;23.252;2024-03-08T13:08:52;3.13;;;2.42;;
20619;SDS011;10469;42.720;23.252;2024-03-08T13:11:19;2.50;;;2.30;;
20619;SDS011;10469;42.720;23.252;2024-03-08T13:13:45;2.40;;;2.20;;
20619;SDS011;10469;42.720;23.252;2024-03-08T13:16:11;2.50;;;2.30;;
20619;SDS011;10469;42.720;23.252;2024-03-08T13:18:41;3.70;;;2.20;;
20619;SDS011;10469;42.720;23.252;2024-03-08T13:21:09;3.20;;;2.60;;
20619;SDS011;10469;42.720;23.252;2024-03-08T13:23:37;2.40;;;2.20;;
20619;SDS011;10469;42.720;23.252;2024-03-08T13:26:10;4.65;;;2.47;;
20619;SDS011;10469;42.720;23.252;2024-03-08T13:28:43;5.22;;;2.55;;
20619;SDS011;10469;42.720;23.252;2024-03-08T13:31:11;2.65;;;2.38;;
20619;SDS011;10469;42.720;23.252;2024-03-08T13:33:37;3.75;;;2.20;;
20619;SDS011;10469;42.720;23.252;2024-03-08T13:36:05;2.95;;;2.40;;
20619;SDS011;10469;42.720;23.252;2024-03-08T13:38:32;7.35;;;3.28;;
20619;SDS011;10469;42.720;23.252;2024-03-08T13:40:58;3.03;;;2.50;;
20619;SDS011;10469;42.720;23.252;2024-03-08T13:43:24;3.35;;;2.00;;
20619;SDS011;10469;42.720;23.252;2024-03-08T13:45:50;3.78;;;2.40;;
20619;SDS011;10469;42.720;23.252;2024-03-08T13:48:15;2.85;;;2.25;;
20619;SDS011;10469;42.720;23.252;2024-03-08T14:11:43;2.58;;;2.38;;
20619;SDS011;10469;42.720;23.252;2024-03-08T14:14:12;2.95;;;2.45;;
20619;SDS011;10469;42.720;23.252;2024-03-08T14:16:38;3.40;;;2.90;;
20619;SDS011;10469;42.720;23.252;2024-03-08T14:19:04;11.52;;;6.90;;
20619;SDS011;10469;42.720;23.252;2024-03-08T14:21:33;3.80;;;3.40;;
20619;SDS011;10469;42.720;23.252;2024-03-08T14:23:59;4.68;;;3.30;;
20619;SDS011;10469;42.720;23.252;2024-03-08T14:26:24;3.78;;;2.17;;
20619;SDS011;10469;42.720;23.252;2024-03-08T14:28:51;3.05;;;2.60;;
20619;SDS011;10469;42.720;23.252;2024-03-08T14:31:19;10.50;;;4.35;;
20619;SDS011;10469;42.720;23.252;2024-03-08T14:33:48;4.13;;;2.72;;
20619;SDS011;10469;42.720;23.252;2024-03-08T14:36:14;5.75;;;4.00;;
20619;SDS011;10469;42.720;23.252;2024-03-08T14:38:45;4.43;;;3.90;;
20619;SDS011;10469;42.720;23.252;2024-03-08T14:41:12;6.10;;;4.22;;
20619;SDS011;10469;42.720;23.252;2024-03-08T14:43:42;4.30;;;2.78;;
20619;SDS011;10469;42.720;23.252;2024-03-08T14:46:10;4.22;;;2.85;;
20619;SDS011;10469;42.720;23.252;2024-03-08T14:48:42;7.13;;;3.30;;
20619;SDS011;10469;42.720;23.252;2024-03-08T14:51:13;6.85;;;4.25;;
20619;SDS011;10469;42.720;23.252;2024-03-08T14:53:40;16.73;;;4.82;;
20619;SDS011;10469;42.720;23.252;2024-03-08T14:56:09;7.25;;;3.33;;
20619;SDS011;10469;42.720;23.252;2024-03-08T14:58:35;4.13;;;2.78;;
20619;SDS011;10469;42.720;23.252;2024-03-08T15:01:02;3.63;;;2.75;;
20619;SDS011;10469;42.720;23.252;2024-03-08T15:03:32;6.85;;;2.92;;
20619;SDS011;10469;42.720;23.252;2024-03-08T15:06:01;5.22;;;2.83;;
20619;SDS011;10469;42.720;23.252;2024-03-08T15:08:26;7.05;;;3.60;;
20619;SDS011;10469;42.720;23.252;2024-03-08T15:10:52;11.93;;;4.47;;
20619;SDS011;10469;42.720;23.252;2024-03-08T15:13:23;6.78;;;3.80;;
20619;SDS011;10469;42.720;23.252;2024-03-08T15:15:52;6.07;;;3.75;;
20619;SDS011;10469;42.720;23.252;2024-03-08T15:18:22;6.15;;;3.08;;
20619;SDS011;10469;42.720;23.252;2024-03-08T15:20:51;4.97;;;3.00;;